Silla, Spain
Current Conditions -  °F | °C
As of 10:00 AM on Monday 22 Dec 2014 (Local Time) from LEVC Reporting Station
Few Clouds Few Clouds  
Wind Chill: 46°   Ceiling: Unl
Heat Index: 46°   Visibility: 6mi
Dew Point: 43°   Wind: 2mph
Humidity: 87%   Direction: NA
Pressure: 30.5"   Gusts: NA
Location:  39.37°N, 0.42°W
Report Text: LEVC 220900Z VRB02KT 9999 FEW025 08/06 Q1033 NOSIG
Loading
Personal Weather Stations






























Interactive Weather Map New forecast layout! Learn more

10-Day Weather Forecast

Advertisements
Track Severe Weather on mobile